createdAt,value
2023-02-24T00:00:10.802Z,89.73
2023-02-24T00:01:10.790Z,89.79
2023-02-24T00:02:10.846Z,89.94
2023-02-24T00:03:10.864Z,89.94
2023-02-24T00:04:10.765Z,89.73
2023-02-24T00:05:10.766Z,89.83
2023-02-24T00:06:10.759Z,89.89
2023-02-24T00:07:10.782Z,89.38
2023-02-24T00:08:13.629Z,89.73
2023-02-24T00:09:12.554Z,90.34
2023-02-24T00:10:10.707Z,90.14
2023-02-24T00:11:11.708Z,90.20
2023-02-24T00:12:10.769Z,89.38
2023-02-24T00:13:10.687Z,89.73
2023-02-24T00:14:10.682Z,89.73
2023-02-24T00:15:10.690Z,89.73
2023-02-24T00:16:10.702Z,90.14
2023-02-24T00:17:10.802Z,89.89
2023-02-24T00:18:11.650Z,90.24
2023-02-24T00:19:10.644Z,90.86
2023-02-24T00:20:10.632Z,90.66
2023-02-24T00:21:10.647Z,90.66
2023-02-24T00:22:10.640Z,90.66
2023-02-24T00:23:10.617Z,90.34
2023-02-24T00:25:00.719Z,90.45
2023-02-24T00:26:00.722Z,90.75
2023-02-24T00:27:00.717Z,90.75
2023-02-24T00:28:00.705Z,90.45
2023-02-24T00:29:00.696Z,90.55
2023-02-24T00:30:00.687Z,90.24
2023-02-24T00:31:00.781Z,90.45
2023-02-24T00:32:01.193Z,90.75
2023-02-24T00:33:00.722Z,90.75
2023-02-24T00:34:01.771Z,90.24
2023-02-24T00:35:01.747Z,90.72
2023-02-24T00:36:01.739Z,90.34
2023-02-24T00:37:01.730Z,90.81
2023-02-24T00:38:01.719Z,90.45
2023-02-24T00:39:01.717Z,90.75
2023-02-24T00:40:01.713Z,90.24
2023-02-24T00:41:01.711Z,89.73
2023-02-24T00:42:01.691Z,90.24
2023-02-24T00:43:01.708Z,89.83
2023-02-24T00:44:02.620Z,89.69
2023-02-24T00:45:01.669Z,90.14
2023-02-24T00:46:01.667Z,90.14
2023-02-24T00:47:01.647Z,89.73
2023-02-24T00:48:01.643Z,90.55
2023-02-24T00:49:01.628Z,90.55
2023-02-24T00:50:01.696Z,90.45
2023-02-24T00:51:01.624Z,89.83
2023-02-24T00:52:01.608Z,89.83
2023-02-24T00:53:01.606Z,90.03
2023-02-24T00:54:01.600Z,89.94
2023-02-24T00:55:01.609Z,89.73
2023-02-24T00:56:01.574Z,89.73
2023-02-24T00:57:02.105Z,90.45
2023-02-24T00:58:01.568Z,90.75
2023-02-24T00:59:01.564Z,90.45
2023-02-24T01:00:01.547Z,90.45
2023-02-24T01:01:01.540Z,90.75
2023-02-24T01:02:01.548Z,90.24
2023-02-24T01:03:01.517Z,90.30
2023-02-24T01:04:01.599Z,90.24
2023-02-24T01:05:01.501Z,90.34
2023-02-24T01:06:01.498Z,89.94
2023-02-24T01:07:01.496Z,89.42
2023-02-24T01:08:48.357Z,89.73
2023-02-24T01:09:48.355Z,89.62
2023-02-24T01:10:49.470Z,89.83
2023-02-24T01:11:49.485Z,89.52
2023-02-24T01:12:49.653Z,90.14
2023-02-24T01:13:49.417Z,89.94
2023-02-24T01:14:49.417Z,90.24
2023-02-24T01:15:49.449Z,90.55
2023-02-24T01:16:49.391Z,90.55
2023-02-24T01:17:49.389Z,90.45
2023-02-24T01:18:49.377Z,90.34
2023-02-24T01:19:49.429Z,90.14
2023-02-24T01:20:49.363Z,90.55
2023-02-24T01:21:50.234Z,90.69
2023-02-24T01:22:49.373Z,90.69
2023-02-24T01:23:49.338Z,90.55
2023-02-24T01:24:49.342Z,90.49
2023-02-24T01:25:49.344Z,90.28
2023-02-24T01:26:49.322Z,90.59
2023-02-24T01:27:49.334Z,90.59
2023-02-24T01:28:49.309Z,90.80
2023-02-24T01:29:49.312Z,90.69
2023-02-24T01:30:49.292Z,90.59
2023-02-24T01:31:50.023Z,90.59
2023-02-24T01:32:50.471Z,90.59
2023-02-24T01:33:49.266Z,90.39
2023-02-24T01:34:49.264Z,90.28
2023-02-24T01:35:49.247Z,90.08
2023-02-24T01:36:49.252Z,89.87
2023-02-24T01:37:49.236Z,90.39
2023-02-24T01:38:49.236Z,90.69
2023-02-24T01:39:49.241Z,91.00
2023-02-24T01:40:49.220Z,90.80
2023-02-24T01:41:49.216Z,90.80
2023-02-24T01:42:49.197Z,91.00
2023-02-24T01:43:49.194Z,90.90
2023-02-24T01:44:49.198Z,90.80
2023-02-24T01:45:49.181Z,90.59
2023-02-24T01:46:49.777Z,90.90
2023-02-24T01:47:49.157Z,90.90
2023-02-24T01:48:49.148Z,90.90
2023-02-24T01:49:49.142Z,90.49
2023-02-24T01:50:49.141Z,90.49
2023-02-24T01:51:49.130Z,90.69
2023-02-24T01:52:49.137Z,90.28
2023-02-24T01:53:49.117Z,90.59
2023-02-24T01:54:49.106Z,90.59
2023-02-24T01:55:49.094Z,90.59
2023-02-24T01:56:49.081Z,90.39
2023-02-24T01:57:49.084Z,90.59
2023-02-24T01:58:49.067Z,90.69
2023-02-24T01:59:49.056Z,90.59
2023-02-24T02:00:49.089Z,90.39
2023-02-24T02:01:49.109Z,89.56
2023-02-24T02:02:49.098Z,89.77
2023-02-24T02:03:49.025Z,89.87
2023-02-24T02:04:49.034Z,89.91
2023-02-24T02:05:49.014Z,89.77
2023-02-24T02:06:49.022Z,89.56
2023-02-24T02:07:49.009Z,89.97
2023-02-24T02:08:48.986Z,89.56
2023-02-24T02:09:48.981Z,89.56
2023-02-24T02:10:48.983Z,89.87
2023-02-24T02:11:48.966Z,89.67
2023-02-24T02:12:48.967Z,90.08
2023-02-24T02:13:49.028Z,89.56
2023-02-24T02:14:48.955Z,89.97
2023-02-24T02:15:48.954Z,89.77
2023-02-24T02:16:48.920Z,89.56
2023-02-24T02:17:48.944Z,90.08
2023-02-24T02:18:48.918Z,89.71
2023-02-24T02:19:48.897Z,89.97
2023-02-24T02:20:48.899Z,89.87
2023-02-24T02:21:48.880Z,89.46
2023-02-24T02:22:48.873Z,89.87
2023-02-24T02:23:49.832Z,89.97
2023-02-24T02:24:48.856Z,90.01
2023-02-24T02:25:48.834Z,90.01
2023-02-24T02:26:49.852Z,90.64
2023-02-24T02:27:48.830Z,90.69
2023-02-24T02:28:48.817Z,90.08
2023-02-24T02:29:48.816Z,90.18
2023-02-24T02:30:48.839Z,90.49
2023-02-24T02:31:48.884Z,90.08
2023-02-24T02:32:48.888Z,90.01
2023-02-24T02:33:48.788Z,89.81
2023-02-24T02:34:48.780Z,90.53
2023-02-24T02:35:48.771Z,90.94
2023-02-24T02:36:48.761Z,91.71
2023-02-24T02:37:48.742Z,91.81
2023-02-24T02:38:48.781Z,91.81
2023-02-24T02:39:48.739Z,91.71
2023-02-24T02:40:48.730Z,90.88
2023-02-24T02:41:48.729Z,90.64
2023-02-24T02:42:48.708Z,90.73
2023-02-24T02:43:48.706Z,90.57
2023-02-24T02:44:48.689Z,90.78
2023-02-24T02:45:48.712Z,90.57
2023-02-24T02:46:48.676Z,90.67
2023-02-24T02:47:48.664Z,90.67
2023-02-24T02:48:48.666Z,90.78
2023-02-24T02:49:48.646Z,91.19
2023-02-24T02:50:48.634Z,91.91
2023-02-24T02:51:48.629Z,91.60
2023-02-24T02:52:48.626Z,91.81
2023-02-24T02:53:48.617Z,92.22
2023-02-24T02:54:48.612Z,92.43
2023-02-24T02:55:52.272Z,92.33
2023-02-24T02:56:50.329Z,92.53
2023-02-24T02:57:48.580Z,92.43
2023-02-24T02:58:48.584Z,92.53
2023-02-24T02:59:52.247Z,92.53
2023-02-24T03:00:48.584Z,92.53
2023-02-24T03:01:48.566Z,92.43
2023-02-24T03:02:48.539Z,92.74
2023-02-24T03:03:48.533Z,92.33
2023-02-24T03:04:48.616Z,92.33
2023-02-24T03:05:48.515Z,92.33
2023-02-24T03:06:48.508Z,92.43
2023-02-24T03:07:48.504Z,92.12
2023-02-24T03:08:48.504Z,92.22
2023-02-24T03:09:48.494Z,92.12
2023-02-24T03:10:48.513Z,92.22
2023-02-24T03:11:50.311Z,92.22
2023-02-24T03:12:48.457Z,92.22
2023-02-24T03:13:48.460Z,92.43
2023-02-24T03:14:48.446Z,91.91
2023-02-24T03:15:48.457Z,91.96
2023-02-24T03:16:48.477Z,92.27
2023-02-24T03:17:48.420Z,92.16
2023-02-24T03:18:48.415Z,92.33
2023-02-24T03:19:48.407Z,92.53
2023-02-24T03:20:48.409Z,92.47
2023-02-24T03:21:48.393Z,92.47
2023-02-24T03:22:48.390Z,92.47
2023-02-24T03:23:48.385Z,92.47
2023-02-24T03:24:48.371Z,92.82
2023-02-24T03:25:48.371Z,92.82
2023-02-24T03:26:48.354Z,93.13
2023-02-24T03:27:48.350Z,92.82
2023-02-24T03:28:48.340Z,93.65
2023-02-24T03:29:48.332Z,93.96
2023-02-24T03:30:48.396Z,93.19
2023-02-24T03:31:48.441Z,94.06
2023-02-24T03:32:48.389Z,93.85
2023-02-24T03:33:48.300Z,93.54
2023-02-24T03:34:48.287Z,93.44
2023-02-24T03:35:48.290Z,93.54
2023-02-24T03:36:48.270Z,93.65
2023-02-24T03:37:48.266Z,93.54
2023-02-24T03:38:48.254Z,93.54
2023-02-24T03:39:48.248Z,93.34
2023-02-24T03:40:48.252Z,93.54
2023-02-24T03:41:48.236Z,93.96
2023-02-24T03:42:48.239Z,93.96
2023-02-24T03:43:48.221Z,93.75
2023-02-24T03:44:48.214Z,94.27
2023-02-24T03:45:48.220Z,94.57
2023-02-24T03:46:48.198Z,94.47
2023-02-24T03:47:48.199Z,95.50
2023-02-24T03:48:48.175Z,95.09
2023-02-24T03:49:48.175Z,94.99
2023-02-24T03:50:48.165Z,94.99
2023-02-24T03:51:48.159Z,94.78
2023-02-24T03:52:48.153Z,94.68
2023-02-24T03:53:48.146Z,94.99
2023-02-24T03:54:48.147Z,94.57
2023-02-24T03:55:48.772Z,95.30
2023-02-24T03:56:48.127Z,95.34
2023-02-24T03:57:48.105Z,94.99
2023-02-24T03:58:48.110Z,94.89
2023-02-24T03:59:48.091Z,94.99
2023-02-24T04:00:48.091Z,95.20
2023-02-24T04:01:48.071Z,94.89
2023-02-24T04:02:49.833Z,94.78
2023-02-24T04:03:48.062Z,94.68
2023-02-24T04:04:48.092Z,94.68
2023-02-24T04:05:48.038Z,94.47
2023-02-24T04:06:48.040Z,94.78
2023-02-24T04:07:48.040Z,94.78
2023-02-24T04:08:48.019Z,95.09
2023-02-24T04:09:48.013Z,94.89
2023-02-24T04:10:47.999Z,95.20
2023-02-24T04:11:47.993Z,95.20
2023-02-24T04:12:48.078Z,95.20
2023-02-24T04:13:47.973Z,95.50
2023-02-24T04:14:47.966Z,94.99
2023-02-24T04:15:47.971Z,94.78
2023-02-24T04:16:47.966Z,94.78
2023-02-24T04:17:47.943Z,94.99
2023-02-24T04:18:47.945Z,95.09
2023-02-24T04:19:47.939Z,94.99
2023-02-24T04:20:47.929Z,94.47
2023-02-24T04:21:47.910Z,94.78
2023-02-24T04:22:47.900Z,94.89
2023-02-24T04:23:47.920Z,94.99
2023-02-24T04:24:47.903Z,94.89
2023-02-24T04:25:47.881Z,95.20
2023-02-24T04:26:47.870Z,95.30
2023-02-24T04:27:47.870Z,94.68
2023-02-24T04:28:47.854Z,94.99
2023-02-24T04:29:47.852Z,94.78
2023-02-24T04:30:47.924Z,95.03
2023-02-24T04:31:47.968Z,95.40
2023-02-24T04:32:47.831Z,94.99
2023-02-24T04:33:47.814Z,95.09
2023-02-24T04:34:47.821Z,94.89
2023-02-24T04:35:47.805Z,95.30
2023-02-24T04:36:47.790Z,94.82
2023-02-24T04:37:47.808Z,95.14
2023-02-24T04:38:47.796Z,95.24
2023-02-24T04:39:47.770Z,94.93
2023-02-24T04:40:47.762Z,95.14
2023-02-24T04:41:47.752Z,95.14
2023-02-24T04:42:47.747Z,94.62
2023-02-24T04:43:47.742Z,94.62
2023-02-24T04:44:47.728Z,95.39
2023-02-24T04:45:47.720Z,95.70
2023-02-24T04:46:47.810Z,95.59
2023-02-24T04:47:47.704Z,96.11
2023-02-24T04:48:47.704Z,97.04
2023-02-24T04:49:47.702Z,97.04
2023-02-24T04:50:47.791Z,96.98
2023-02-24T04:51:47.681Z,96.88
2023-02-24T04:52:47.671Z,97.08
2023-02-24T04:53:47.661Z,96.77
2023-02-24T04:54:47.649Z,96.98
2023-02-24T04:55:47.643Z,96.98
2023-02-24T04:56:47.640Z,96.88
2023-02-24T04:57:47.630Z,96.77
2023-02-24T04:58:47.621Z,96.98
2023-02-24T04:59:47.608Z,97.02
2023-02-24T05:00:47.603Z,97.08
2023-02-24T05:01:47.599Z,96.88
2023-02-24T05:02:47.589Z,96.56
2023-02-24T05:03:47.660Z,96.56
2023-02-24T05:04:47.598Z,96.61
2023-02-24T05:05:47.576Z,96.67
2023-02-24T05:06:47.568Z,96.82
2023-02-24T05:07:47.556Z,97.23
2023-02-24T05:08:47.543Z,97.44
2023-02-24T05:09:47.539Z,97.33
2023-02-24T05:10:47.528Z,97.54
2023-02-24T05:11:47.520Z,97.54
2023-02-24T05:12:47.512Z,97.64
2023-02-24T05:13:48.357Z,97.69
2023-02-24T05:14:47.503Z,97.54
2023-02-24T05:15:48.349Z,97.59
2023-02-24T05:16:47.495Z,97.54
2023-02-24T05:17:49.353Z,97.64
2023-02-24T05:18:47.489Z,97.64
2023-02-24T05:19:47.480Z,97.23
2023-02-24T05:20:47.448Z,96.77
2023-02-24T05:21:48.285Z,96.98
2023-02-24T05:22:48.296Z,96.36
2023-02-24T05:23:47.453Z,95.84
2023-02-24T05:24:47.429Z,96.05
2023-02-24T05:25:47.407Z,96.05
2023-02-24T05:26:47.455Z,96.26
2023-02-24T05:27:47.400Z,96.05
2023-02-24T05:28:47.392Z,95.64
2023-02-24T05:29:47.377Z,95.84
2023-02-24T05:30:47.409Z,95.64
2023-02-24T05:31:47.471Z,95.84
2023-02-24T05:32:47.405Z,96.36
2023-02-24T05:33:47.357Z,95.99
2023-02-24T05:34:47.341Z,95.12
2023-02-24T05:35:47.324Z,95.22
2023-02-24T05:36:48.883Z,95.17
2023-02-24T05:37:47.326Z,95.27
2023-02-24T05:38:47.326Z,95.27
2023-02-24T05:39:47.311Z,95.17
2023-02-24T05:40:47.283Z,94.85
2023-02-24T05:41:47.278Z,95.17
2023-02-24T05:42:47.271Z,95.89
2023-02-24T05:43:47.273Z,95.53
2023-02-24T05:44:47.254Z,95.22
2023-02-24T05:45:47.261Z,95.84
2023-02-24T05:46:47.335Z,95.32
2023-02-24T05:47:47.232Z,95.02
2023-02-24T05:48:47.220Z,94.96
2023-02-24T05:49:47.259Z,95.43
2023-02-24T05:50:47.191Z,95.68
2023-02-24T05:51:48.220Z,95.06
2023-02-24T05:52:47.195Z,95.48
2023-02-24T05:53:47.198Z,95.37
2023-02-24T05:54:47.196Z,95.57
2023-02-24T05:55:47.913Z,94.92
2023-02-24T05:56:47.160Z,95.37
2023-02-24T05:57:47.146Z,95.06
2023-02-24T05:58:47.140Z,95.12
2023-02-24T05:59:47.129Z,94.85
2023-02-24T06:00:47.119Z,94.96
2023-02-24T06:01:47.256Z,95.17
2023-02-24T06:02:47.119Z,95.37
2023-02-24T06:03:47.112Z,93.88
2023-02-24T06:04:47.092Z,93.72
2023-02-24T06:05:51.787Z,94.13
2023-02-24T06:06:47.075Z,93.93
2023-02-24T06:07:47.270Z,94.23
2023-02-24T06:08:48.870Z,94.13
2023-02-24T06:09:47.051Z,94.85
2023-02-24T06:10:56.794Z,95.00
2023-02-24T06:11:48.878Z,95.10
2023-02-24T06:12:50.789Z,93.87
2023-02-24T06:13:49.825Z,94.69
2023-02-24T06:14:47.017Z,94.96
2023-02-24T06:15:46.999Z,95.37
2023-02-24T06:16:47.107Z,95.48
2023-02-24T06:17:46.986Z,94.75
2023-02-24T06:18:46.979Z,94.96
2023-02-24T06:19:46.963Z,95.31
2023-02-24T06:20:46.970Z,94.85
2023-02-24T06:21:47.804Z,94.07
2023-02-24T06:22:46.943Z,94.28
2023-02-24T06:23:46.927Z,94.07
2023-02-24T06:24:46.926Z,93.04
2023-02-24T06:25:46.925Z,93.60
2023-02-24T06:26:46.930Z,92.36
2023-02-24T06:27:46.916Z,93.18
2023-02-24T06:28:46.905Z,92.87
2023-02-24T06:29:46.918Z,92.97
2023-02-24T06:30:46.976Z,93.80
2023-02-24T06:31:46.965Z,93.18
2023-02-24T06:32:46.965Z,93.18
2023-02-24T06:33:46.859Z,93.08
2023-02-24T06:34:46.908Z,92.46
2023-02-24T06:35:46.856Z,92.46
2023-02-24T06:36:46.834Z,92.57
2023-02-24T06:37:46.852Z,92.25
2023-02-24T06:38:46.869Z,92.36
2023-02-24T06:39:46.819Z,92.19
2023-02-24T06:40:46.803Z,92.40
2023-02-24T06:41:46.796Z,92.50
2023-02-24T06:42:46.908Z,92.50
2023-02-24T06:43:46.795Z,92.57
2023-02-24T06:44:46.803Z,92.61
2023-02-24T06:45:46.814Z,92.46
2023-02-24T06:46:46.775Z,92.15
2023-02-24T06:47:46.753Z,92.09
2023-02-24T06:48:46.739Z,92.19
2023-02-24T06:49:46.737Z,92.19
2023-02-24T06:50:46.724Z,92.40
2023-02-24T06:51:46.715Z,92.71
2023-02-24T06:52:46.788Z,92.71
2023-02-24T06:53:46.694Z,92.46
2023-02-24T06:54:47.691Z,92.67
2023-02-24T06:55:46.690Z,92.15
2023-02-24T06:56:46.676Z,92.42
2023-02-24T06:57:46.674Z,92.32
2023-02-24T06:58:48.375Z,92.63
2023-02-24T06:59:47.657Z,92.32
2023-02-24T07:00:46.672Z,91.80
2023-02-24T07:01:47.401Z,92.11
2023-02-24T07:02:46.634Z,91.59
2023-02-24T07:03:46.640Z,91.53
2023-02-24T07:04:46.617Z,91.59
2023-02-24T07:05:46.615Z,91.69
2023-02-24T07:06:46.591Z,91.69
2023-02-24T07:07:46.588Z,92.42
2023-02-24T07:08:46.580Z,92.00
2023-02-24T07:09:46.585Z,92.00
2023-02-24T07:10:46.561Z,92.17
2023-02-24T07:11:46.945Z,91.44
2023-02-24T07:12:47.561Z,92.32
2023-02-24T07:13:46.541Z,91.90
2023-02-24T07:14:46.536Z,91.90
2023-02-24T07:15:46.521Z,91.90
2023-02-24T07:16:46.533Z,91.90
2023-02-24T07:17:47.682Z,92.21
2023-02-24T07:18:47.504Z,92.11
2023-02-24T07:19:46.496Z,92.83
2023-02-24T07:20:46.496Z,92.42
2023-02-24T07:21:46.497Z,92.32
2023-02-24T07:22:46.472Z,92.07
2023-02-24T07:23:46.492Z,91.55
2023-02-24T07:24:46.729Z,91.55
2023-02-24T07:25:46.528Z,91.55
2023-02-24T07:26:47.415Z,91.55
2023-02-24T07:27:48.399Z,91.55
2023-02-24T07:28:48.073Z,91.65
2023-02-24T07:29:48.419Z,91.75
2023-02-24T07:30:49.504Z,92.27
2023-02-24T07:31:47.586Z,91.86
2023-02-24T07:32:47.429Z,91.34
2023-02-24T07:33:46.413Z,91.40
2023-02-24T07:34:46.383Z,91.20
2023-02-24T07:35:46.389Z,90.89
2023-02-24T07:36:46.360Z,89.61
2023-02-24T07:37:46.357Z,89.29
2023-02-24T07:38:46.352Z,88.68
2023-02-24T07:39:46.350Z,88.47
2023-02-24T07:40:46.333Z,88.12
2023-02-24T07:41:46.319Z,87.40
2023-02-24T07:42:46.324Z,87.29
2023-02-24T07:43:46.316Z,86.57
2023-02-24T07:44:46.675Z,86.53
2023-02-24T07:45:46.342Z,86.74
2023-02-24T07:46:46.313Z,86.74
2023-02-24T07:47:46.276Z,86.60
2023-02-24T07:48:46.289Z,86.08
2023-02-24T07:49:46.913Z,84.84
2023-02-24T07:50:46.254Z,84.74
2023-02-24T07:51:46.247Z,85.15
2023-02-24T07:52:46.235Z,85.63
2023-02-24T07:53:46.223Z,85.01
2023-02-24T07:54:46.222Z,84.19
2023-02-24T07:55:46.212Z,83.67
2023-02-24T07:56:46.268Z,83.42
2023-02-24T07:57:46.200Z,82.91
2023-02-24T07:58:46.186Z,83.28
2023-02-24T07:59:46.177Z,82.56
2023-02-24T08:00:46.163Z,82.50
2023-02-24T08:01:46.181Z,83.32
2023-02-24T08:02:46.249Z,83.22
2023-02-24T08:03:46.147Z,81.88
2023-02-24T08:04:46.136Z,81.77
2023-02-24T08:05:46.175Z,81.02
2023-02-24T08:06:47.960Z,81.43
2023-02-24T08:07:47.115Z,81.43
2023-02-24T08:08:46.104Z,81.33
2023-02-24T08:09:46.492Z,81.84
2023-02-24T08:10:46.097Z,80.75
2023-02-24T08:11:46.088Z,81.47
2023-02-24T08:12:46.073Z,81.67
2023-02-24T08:13:47.905Z,82.29
2023-02-24T08:14:46.063Z,82.33
2023-02-24T08:16:52.885Z,82.95
2023-02-24T08:17:52.899Z,83.12
2023-02-24T08:18:54.768Z,83.28
2023-02-24T08:19:53.958Z,83.32
2023-02-24T08:20:53.976Z,83.12
2023-02-24T08:21:53.965Z,83.39
2023-02-24T08:22:53.938Z,82.87
2023-02-24T08:23:53.928Z,83.18
2023-02-24T08:24:53.912Z,83.18
2023-02-24T08:25:53.941Z,83.28
2023-02-24T08:26:53.895Z,82.77
2023-02-24T08:28:06.356Z,82.53
2023-02-24T08:28:55.888Z,82.25
2023-02-24T08:29:53.954Z,82.25
2023-02-24T08:30:53.995Z,82.46
2023-02-24T08:31:53.966Z,83.28
2023-02-24T08:32:53.923Z,83.73
2023-02-24T08:33:53.864Z,82.77
2023-02-24T08:34:54.830Z,82.67
2023-02-24T08:35:53.819Z,82.77
2023-02-24T08:36:54.831Z,82.35
2023-02-24T08:37:53.823Z,82.67
2023-02-24T08:38:53.797Z,82.73
2023-02-24T08:39:53.790Z,82.07
2023-02-24T08:40:53.795Z,81.21
2023-02-24T08:41:53.882Z,80.19
2023-02-24T08:42:53.763Z,80.77
2023-02-24T08:43:53.769Z,79.53
2023-02-24T08:44:53.770Z,79.43
2023-02-24T08:45:53.742Z,79.33
2023-02-24T08:46:53.865Z,79.26
2023-02-24T08:47:53.751Z,79.98
2023-02-24T08:48:53.722Z,80.49
2023-02-24T08:49:53.730Z,80.49
2023-02-24T08:50:53.719Z,80.05
2023-02-24T08:51:54.265Z,79.19
2023-02-24T08:52:54.272Z,78.57
2023-02-24T08:53:53.698Z,79.25
2023-02-24T08:54:53.676Z,78.43
2023-02-24T08:55:53.670Z,78.09
2023-02-24T08:56:53.662Z,77.30
2023-02-24T08:57:53.825Z,78.12
2023-02-24T08:58:54.652Z,78.16
2023-02-24T08:59:55.378Z,78.16
2023-02-24T09:00:53.677Z,77.44
2023-02-24T09:02:04.388Z,78.02
2023-02-24T09:02:56.315Z,77.51
2023-02-24T09:03:54.270Z,77.20
2023-02-24T09:04:53.622Z,77.10
2023-02-24T09:05:53.590Z,77.00
2023-02-24T09:06:57.688Z,77.13
2023-02-24T09:07:54.841Z,76.51
2023-02-24T09:08:53.566Z,75.66
2023-02-24T09:09:53.572Z,74.12
2023-02-24T09:10:53.556Z,73.47
2023-02-24T09:11:53.555Z,72.44
2023-02-24T09:12:53.578Z,73.27
2023-02-24T09:13:53.572Z,72.20
2023-02-24T09:14:53.507Z,72.82
2023-02-24T09:15:53.631Z,72.00
2023-02-24T09:16:53.521Z,71.48
2023-02-24T09:17:53.506Z,71.90
2023-02-24T09:18:54.348Z,72.17
2023-02-24T09:19:53.502Z,72.58
2023-02-24T09:20:53.468Z,72.17
2023-02-24T09:21:53.450Z,71.97
2023-02-24T09:22:53.442Z,72.17
2023-02-24T09:23:53.449Z,72.24
2023-02-24T09:24:53.423Z,72.27
2023-02-24T09:25:53.417Z,71.39
2023-02-24T09:26:53.428Z,71.11
2023-02-24T09:27:53.428Z,71.11
2023-02-24T09:28:53.420Z,70.47
2023-02-24T09:29:53.380Z,70.06
2023-02-24T09:30:53.773Z,70.60
2023-02-24T09:31:53.466Z,70.22
2023-02-24T09:32:54.546Z,69.98
2023-02-24T09:33:53.364Z,69.89
2023-02-24T09:34:53.344Z,70.19
2023-02-24T09:35:53.333Z,69.75
2023-02-24T09:36:53.325Z,69.27
2023-02-24T09:37:53.327Z,69.95
2023-02-24T09:38:53.303Z,68.11
2023-02-24T09:39:53.343Z,68.14
2023-02-24T09:40:53.345Z,67.73
2023-02-24T09:41:53.375Z,69.61
2023-02-24T09:42:53.295Z,69.68
2023-02-24T09:43:53.276Z,69.10
2023-02-24T09:44:53.279Z,68.79
2023-02-24T09:45:53.401Z,69.78
2023-02-24T09:46:53.410Z,68.48
2023-02-24T09:47:53.242Z,69.40
2023-02-24T09:48:53.232Z,68.07
2023-02-24T09:49:53.217Z,67.76
2023-02-24T09:51:02.496Z,68.86
2023-02-24T09:51:55.226Z,68.76
2023-02-24T09:52:57.576Z,67.83
2023-02-24T09:53:56.934Z,68.11
2023-02-24T09:54:53.195Z,67.80
2023-02-24T09:55:53.175Z,67.49
2023-02-24T09:56:53.171Z,68.83
2023-02-24T09:57:53.160Z,68.11
2023-02-24T09:58:53.229Z,68.08
2023-02-24T09:59:53.161Z,67.67
2023-02-24T10:00:53.154Z,67.43
2023-02-24T10:01:53.199Z,66.78
2023-02-24T10:02:53.140Z,66.17
2023-02-24T10:03:53.128Z,65.87
2023-02-24T10:04:53.117Z,65.59
2023-02-24T10:05:53.096Z,65.42
2023-02-24T10:06:53.083Z,65.80
2023-02-24T10:07:53.094Z,66.13
2023-02-24T10:08:53.139Z,65.83
2023-02-24T10:09:53.072Z,67.16
2023-02-24T10:10:53.056Z,66.34
2023-02-24T10:11:53.079Z,66.00
2023-02-24T10:12:53.091Z,66.31
2023-02-24T10:13:54.046Z,65.69
2023-02-24T10:14:53.791Z,66.24
2023-02-24T10:15:56.962Z,66.13
2023-02-24T10:16:54.834Z,66.44
2023-02-24T10:17:53.001Z,67.46
2023-02-24T10:18:53.006Z,67.74
2023-02-24T10:19:52.993Z,67.64
2023-02-24T10:20:53.910Z,67.54
2023-02-24T10:21:52.971Z,67.64
2023-02-24T10:22:52.980Z,68.28
2023-02-24T10:23:54.847Z,68.79
2023-02-24T10:24:54.001Z,66.24
2023-02-24T10:25:52.959Z,65.83
2023-02-24T10:27:00.710Z,66.67
2023-02-24T10:27:56.893Z,66.71
2023-02-24T10:28:54.895Z,65.89
2023-02-24T10:29:52.906Z,67.94
2023-02-24T10:30:52.993Z,67.80
2023-02-24T10:31:53.176Z,66.67
2023-02-24T10:32:53.055Z,66.40
2023-02-24T10:33:52.880Z,66.88
2023-02-24T10:34:52.858Z,66.27
2023-02-24T10:35:52.857Z,66.27
2023-02-24T10:36:52.852Z,65.96
2023-02-24T10:37:52.849Z,66.47
2023-02-24T10:38:52.834Z,66.06
2023-02-24T10:39:52.821Z,66.27
2023-02-24T10:40:52.847Z,65.48
2023-02-24T10:41:52.964Z,65.99
2023-02-24T10:42:52.811Z,66.81
2023-02-24T10:43:52.861Z,66.60
2023-02-24T10:45:01.417Z,66.30
2023-02-24T10:45:54.843Z,66.81
2023-02-24T10:46:52.863Z,66.81
2023-02-24T10:47:52.763Z,66.19
2023-02-24T10:48:52.896Z,67.05
2023-02-24T10:49:52.756Z,65.99
2023-02-24T10:50:56.466Z,65.61
2023-02-24T10:51:53.742Z,65.44
2023-02-24T10:52:53.301Z,64.92
2023-02-24T10:53:56.356Z,64.82
2023-02-24T10:54:54.756Z,65.12
2023-02-24T10:55:54.406Z,64.20
2023-02-24T10:56:52.696Z,63.42
2023-02-24T10:57:58.970Z,63.51
2023-02-24T10:58:54.676Z,63.82
2023-02-24T10:59:53.440Z,63.69
2023-02-24T11:00:52.666Z,64.03
2023-02-24T11:01:52.819Z,63.62
2023-02-24T11:02:52.680Z,62.70
2023-02-24T11:03:52.637Z,63.75
2023-02-24T11:04:52.617Z,62.93
2023-02-24T11:05:52.618Z,63.85
2023-02-24T11:06:54.410Z,63.44
2023-02-24T11:07:53.316Z,64.06
2023-02-24T11:08:52.605Z,63.85
2023-02-24T11:09:52.669Z,63.78
2023-02-24T11:10:52.604Z,64.19
2023-02-24T11:11:52.579Z,64.81
2023-02-24T11:13:00.891Z,65.22
2023-02-24T11:13:54.630Z,64.37
2023-02-24T11:14:52.544Z,64.37
2023-02-24T11:15:52.575Z,64.50
2023-02-24T11:16:52.527Z,64.81
2023-02-24T11:17:52.542Z,65.32
2023-02-24T11:18:52.508Z,65.29
2023-02-24T11:19:52.500Z,63.96
2023-02-24T11:20:52.490Z,64.26
2023-02-24T11:21:52.486Z,64.57
2023-02-24T11:22:52.492Z,63.75
2023-02-24T11:23:52.475Z,64.09
2023-02-24T11:24:53.313Z,63.85
2023-02-24T11:26:39.875Z,64.98
2023-02-24T11:27:39.860Z,64.37
2023-02-24T11:28:39.869Z,64.67
2023-02-24T11:29:40.942Z,64.47
2023-02-24T11:30:41.106Z,64.26
2023-02-24T11:31:41.232Z,64.06
2023-02-24T11:32:47.808Z,63.96
2023-02-24T11:33:46.820Z,64.88
2023-02-24T11:34:40.920Z,63.24
2023-02-24T11:35:40.900Z,63.75
2023-02-24T11:36:40.896Z,64.03
2023-02-24T11:37:43.147Z,63.54
2023-02-24T11:38:41.878Z,63.54
2023-02-24T11:39:40.869Z,63.62
2023-02-24T11:40:41.738Z,63.72
2023-02-24T11:41:40.867Z,63.69
2023-02-24T11:42:40.850Z,63.42
2023-02-24T11:43:40.849Z,63.49
2023-02-24T11:44:40.838Z,63.59
2023-02-24T11:45:40.859Z,63.51
2023-02-24T11:46:41.397Z,63.31
2023-02-24T11:47:40.818Z,64.37
2023-02-24T11:48:40.792Z,63.78
2023-02-24T11:49:40.792Z,64.19
2023-02-24T11:50:40.779Z,64.29
2023-02-24T11:51:40.789Z,64.29
2023-02-24T11:52:40.789Z,65.25
2023-02-24T11:53:40.791Z,65.14
2023-02-24T11:54:40.751Z,65.66
2023-02-24T11:55:40.741Z,65.05
2023-02-24T11:56:40.762Z,65.45
2023-02-24T11:57:40.723Z,64.43
2023-02-24T11:58:40.767Z,64.73
2023-02-24T11:59:40.725Z,63.89
2023-02-24T12:00:47.984Z,64.53
2023-02-24T12:01:43.741Z,65.22
2023-02-24T12:02:41.741Z,65.01
2023-02-24T12:03:40.683Z,63.89
2023-02-24T12:04:40.686Z,63.71
2023-02-24T12:05:40.726Z,65.25
2023-02-24T12:06:45.253Z,64.73
2023-02-24T12:09:04.198Z,64.84
2023-02-24T12:10:16.108Z,64.94
2023-02-24T12:11:07.077Z,64.32
2023-02-24T12:12:04.586Z,64.22
2023-02-24T12:13:04.571Z,64.53
2023-02-24T12:14:07.068Z,64.01
2023-02-24T12:15:04.154Z,64.32
2023-02-24T12:16:04.201Z,64.53
2023-02-24T12:17:04.192Z,64.32
2023-02-24T12:18:04.130Z,65.08
2023-02-24T12:19:04.123Z,63.74
2023-02-24T12:20:04.116Z,64.56
2023-02-24T12:21:04.103Z,64.76
2023-02-24T12:22:04.096Z,64.46
2023-02-24T12:23:04.085Z,64.97
2023-02-24T12:24:04.084Z,64.46
2023-02-24T12:25:05.051Z,64.46
2023-02-24T12:26:04.064Z,63.02
2023-02-24T12:27:04.066Z,62.30
2023-02-24T12:28:04.073Z,62.71
2023-02-24T12:29:04.049Z,62.71
2023-02-24T12:30:04.032Z,62.37
2023-02-24T12:31:04.132Z,62.16
2023-02-24T12:32:04.151Z,61.44
2023-02-24T12:33:04.067Z,61.44
2023-02-24T12:34:03.999Z,61.55
2023-02-24T12:35:05.552Z,61.44
2023-02-24T12:36:05.996Z,62.40
2023-02-24T12:37:05.583Z,62.19
2023-02-24T12:38:05.580Z,62.19
2023-02-24T12:39:07.589Z,62.09
2023-02-24T12:40:05.572Z,62.30
2023-02-24T12:41:05.556Z,62.81
2023-02-24T12:42:03.951Z,62.81
2023-02-24T12:43:03.923Z,62.53
2023-02-24T12:44:03.911Z,61.79
2023-02-24T12:45:05.000Z,62.43
2023-02-24T12:46:05.033Z,61.71
2023-02-24T12:47:04.984Z,61.71
2023-02-24T12:48:05.015Z,62.25
2023-02-24T12:49:04.975Z,62.77
2023-02-24T12:50:04.961Z,62.97
2023-02-24T12:51:04.963Z,62.66
2023-02-24T12:52:04.948Z,62.15
2023-02-24T12:53:04.929Z,62.15
2023-02-24T12:54:04.918Z,62.05
2023-02-24T12:55:04.937Z,62.66
2023-02-24T12:56:04.912Z,63.18
2023-02-24T12:57:04.913Z,63.52